Terminal Aerodrome Forecast
Issued by NWS

Home | Current Version | Previous Version | Text Only | Print | Product List | Glossary On
Versions: 1 2 3 4 5 6 7 8 9 10 11 12
968
FTUS42 TJSJ 100544
TAFNCM
TAF
TNCM 100544Z 1006/1106 11010KT P6SM VCSH SCT018 SCT035
     FM101300 12013KT P6SM FEW018 SCT025
     FM102300 10010KT P6SM FEW018 FEW030=

USA.gov is the U.S. government's official web portal to all federal, state and local government web resources and services.